sensor_id;sensor_type;location;lat;lon;timestamp;P1;durP1;ratioP1;P2;durP2;ratioP2
77191;SDS011;66172;48.526;8.078;2024-01-15T00:00:09;39.70;;;12.40;;
77191;SDS011;66172;48.526;8.078;2024-01-15T00:02:36;46.97;;;14.40;;
77191;SDS011;66172;48.526;8.078;2024-01-15T00:05:01;45.00;;;13.10;;
77191;SDS011;66172;48.526;8.078;2024-01-15T00:07:27;41.38;;;12.55;;
77191;SDS011;66172;48.526;8.078;2024-01-15T00:09:53;39.90;;;12.48;;
77191;SDS011;66172;48.526;8.078;2024-01-15T00:12:19;42.33;;;11.77;;
77191;SDS011;66172;48.526;8.078;2024-01-15T00:14:45;38.05;;;12.48;;
77191;SDS011;66172;48.526;8.078;2024-01-15T00:17:11;43.50;;;12.38;;
77191;SDS011;66172;48.526;8.078;2024-01-15T00:19:37;37.88;;;11.63;;
77191;SDS011;66172;48.526;8.078;2024-01-15T00:22:04;46.23;;;13.80;;
77191;SDS011;66172;48.526;8.078;2024-01-15T00:24:30;39.80;;;12.50;;
77191;SDS011;66172;48.526;8.078;2024-01-15T00:26:55;35.63;;;12.38;;
77191;SDS011;66172;48.526;8.078;2024-01-15T00:29:21;37.40;;;12.05;;
77191;SDS011;66172;48.526;8.078;2024-01-15T00:31:47;38.80;;;11.30;;
77191;SDS011;66172;48.526;8.078;2024-01-15T00:34:13;39.92;;;11.18;;
77191;SDS011;66172;48.526;8.078;2024-01-15T00:36:39;35.25;;;11.45;;
77191;SDS011;66172;48.526;8.078;2024-01-15T00:39:05;35.30;;;11.47;;
77191;SDS011;66172;48.526;8.078;2024-01-15T00:41:31;40.92;;;11.45;;
77191;SDS011;66172;48.526;8.078;2024-01-15T00:43:57;33.63;;;10.38;;
77191;SDS011;66172;48.526;8.078;2024-01-15T00:46:23;38.88;;;11.27;;
77191;SDS011;66172;48.526;8.078;2024-01-15T00:48:49;37.33;;;11.03;;
77191;SDS011;66172;48.526;8.078;2024-01-15T00:51:15;35.72;;;10.07;;
77191;SDS011;66172;48.526;8.078;2024-01-15T00:53:41;40.83;;;10.60;;
77191;SDS011;66172;48.526;8.078;2024-01-15T00:56:06;36.43;;;11.27;;
77191;SDS011;66172;48.526;8.078;2024-01-15T00:58:32;38.45;;;11.18;;
77191;SDS011;66172;48.526;8.078;2024-01-15T01:00:58;32.35;;;11.43;;
77191;SDS011;66172;48.526;8.078;2024-01-15T01:03:24;40.25;;;11.15;;
77191;SDS011;66172;48.526;8.078;2024-01-15T01:05:50;41.43;;;12.30;;
77191;SDS011;66172;48.526;8.078;2024-01-15T01:08:16;43.63;;;11.85;;
77191;SDS011;66172;48.526;8.078;2024-01-15T01:10:42;43.40;;;12.82;;
77191;SDS011;66172;48.526;8.078;2024-01-15T01:13:08;36.50;;;11.73;;
77191;SDS011;66172;48.526;8.078;2024-01-15T01:15:34;41.40;;;11.93;;
77191;SDS011;66172;48.526;8.078;2024-01-15T01:18:00;36.72;;;11.70;;
77191;SDS011;66172;48.526;8.078;2024-01-15T01:20:26;42.67;;;12.75;;
77191;SDS011;66172;48.526;8.078;2024-01-15T01:22:52;40.43;;;11.73;;
77191;SDS011;66172;48.526;8.078;2024-01-15T01:25:18;37.72;;;11.30;;
77191;SDS011;66172;48.526;8.078;2024-01-15T01:27:44;40.30;;;11.45;;
77191;SDS011;66172;48.526;8.078;2024-01-15T01:30:09;37.05;;;12.00;;
77191;SDS011;66172;48.526;8.078;2024-01-15T01:32:35;38.63;;;11.57;;
77191;SDS011;66172;48.526;8.078;2024-01-15T01:35:01;37.00;;;10.80;;
77191;SDS011;66172;48.526;8.078;2024-01-15T01:37:27;40.78;;;12.35;;
77191;SDS011;66172;48.526;8.078;2024-01-15T01:39:53;44.93;;;12.53;;
77191;SDS011;66172;48.526;8.078;2024-01-15T01:42:19;39.37;;;11.90;;
77191;SDS011;66172;48.526;8.078;2024-01-15T01:44:45;43.00;;;11.80;;
77191;SDS011;66172;48.526;8.078;2024-01-15T01:47:11;39.33;;;12.75;;
77191;SDS011;66172;48.526;8.078;2024-01-15T01:49:37;39.67;;;13.17;;
77191;SDS011;66172;48.526;8.078;2024-01-15T01:52:04;38.00;;;12.02;;
77191;SDS011;66172;48.526;8.078;2024-01-15T01:54:32;38.58;;;11.60;;
77191;SDS011;66172;48.526;8.078;2024-01-15T01:56:59;38.10;;;12.27;;
77191;SDS011;66172;48.526;8.078;2024-01-15T01:59:26;42.60;;;12.75;;
77191;SDS011;66172;48.526;8.078;2024-01-15T02:01:56;37.93;;;11.13;;
77191;SDS011;66172;48.526;8.078;2024-01-15T02:04:25;43.55;;;12.85;;
77191;SDS011;66172;48.526;8.078;2024-01-15T02:06:51;38.53;;;11.88;;
77191;SDS011;66172;48.526;8.078;2024-01-15T02:09:18;38.42;;;11.77;;
77191;SDS011;66172;48.526;8.078;2024-01-15T02:11:46;44.05;;;12.45;;
77191;SDS011;66172;48.526;8.078;2024-01-15T02:14:12;40.57;;;11.90;;
77191;SDS011;66172;48.526;8.078;2024-01-15T02:16:38;43.78;;;13.38;;
77191;SDS011;66172;48.526;8.078;2024-01-15T02:19:04;43.67;;;13.20;;
77191;SDS011;66172;48.526;8.078;2024-01-15T02:21:31;42.50;;;11.82;;
77191;SDS011;66172;48.526;8.078;2024-01-15T02:23:57;40.80;;;12.37;;
77191;SDS011;66172;48.526;8.078;2024-01-15T02:26:23;39.83;;;12.00;;
77191;SDS011;66172;48.526;8.078;2024-01-15T02:28:49;45.80;;;13.50;;
77191;SDS011;66172;48.526;8.078;2024-01-15T02:31:16;41.10;;;11.63;;
77191;SDS011;66172;48.526;8.078;2024-01-15T02:33:43;37.58;;;11.57;;
77191;SDS011;66172;48.526;8.078;2024-01-15T02:36:11;39.77;;;12.47;;
77191;SDS011;66172;48.526;8.078;2024-01-15T02:38:37;38.30;;;12.25;;
77191;SDS011;66172;48.526;8.078;2024-01-15T02:41:04;39.45;;;12.18;;
77191;SDS011;66172;48.526;8.078;2024-01-15T02:43:30;37.60;;;11.32;;
77191;SDS011;66172;48.526;8.078;2024-01-15T02:45:56;37.57;;;11.93;;
77191;SDS011;66172;48.526;8.078;2024-01-15T02:48:21;34.80;;;10.55;;
77191;SDS011;66172;48.526;8.078;2024-01-15T02:50:47;35.00;;;10.90;;
77191;SDS011;66172;48.526;8.078;2024-01-15T02:53:13;37.27;;;10.23;;
77191;SDS011;66172;48.526;8.078;2024-01-15T02:55:39;36.33;;;10.43;;
77191;SDS011;66172;48.526;8.078;2024-01-15T02:58:05;36.33;;;10.88;;
77191;SDS011;66172;48.526;8.078;2024-01-15T03:00:31;40.43;;;13.20;;
77191;SDS011;66172;48.526;8.078;2024-01-15T03:02:57;36.67;;;11.87;;
77191;SDS011;66172;48.526;8.078;2024-01-15T03:05:22;37.75;;;10.77;;
77191;SDS011;66172;48.526;8.078;2024-01-15T03:07:48;36.20;;;11.60;;
77191;SDS011;66172;48.526;8.078;2024-01-15T03:10:14;35.43;;;11.23;;
77191;SDS011;66172;48.526;8.078;2024-01-15T03:12:40;38.38;;;12.27;;
77191;SDS011;66172;48.526;8.078;2024-01-15T03:15:06;36.03;;;11.77;;
77191;SDS011;66172;48.526;8.078;2024-01-15T03:17:32;40.03;;;11.45;;
77191;SDS011;66172;48.526;8.078;2024-01-15T03:19:58;33.40;;;11.20;;
77191;SDS011;66172;48.526;8.078;2024-01-15T03:22:24;35.13;;;11.35;;
77191;SDS011;66172;48.526;8.078;2024-01-15T03:24:50;38.50;;;11.88;;
77191;SDS011;66172;48.526;8.078;2024-01-15T03:27:16;39.60;;;10.43;;
77191;SDS011;66172;48.526;8.078;2024-01-15T03:29:42;40.67;;;12.07;;
77191;SDS011;66172;48.526;8.078;2024-01-15T03:32:07;38.05;;;10.73;;
77191;SDS011;66172;48.526;8.078;2024-01-15T03:34:33;32.50;;;9.80;;
77191;SDS011;66172;48.526;8.078;2024-01-15T03:36:59;30.83;;;9.60;;
77191;SDS011;66172;48.526;8.078;2024-01-15T03:39:25;37.00;;;11.25;;
77191;SDS011;66172;48.526;8.078;2024-01-15T03:41:51;35.60;;;10.95;;
77191;SDS011;66172;48.526;8.078;2024-01-15T03:44:17;37.90;;;11.53;;
77191;SDS011;66172;48.526;8.078;2024-01-15T03:46:43;34.42;;;10.40;;
77191;SDS011;66172;48.526;8.078;2024-01-15T03:49:09;33.65;;;10.30;;
77191;SDS011;66172;48.526;8.078;2024-01-15T03:51:35;38.05;;;10.73;;
77191;SDS011;66172;48.526;8.078;2024-01-15T03:54:00;33.10;;;10.70;;
77191;SDS011;66172;48.526;8.078;2024-01-15T03:56:26;36.95;;;11.43;;
77191;SDS011;66172;48.526;8.078;2024-01-15T03:58:52;34.70;;;10.48;;
77191;SDS011;66172;48.526;8.078;2024-01-15T04:01:19;38.77;;;10.40;;
77191;SDS011;66172;48.526;8.078;2024-01-15T04:03:45;35.85;;;10.02;;
77191;SDS011;66172;48.526;8.078;2024-01-15T04:06:10;34.22;;;10.55;;
77191;SDS011;66172;48.526;8.078;2024-01-15T04:08:36;31.57;;;9.30;;
77191;SDS011;66172;48.526;8.078;2024-01-15T04:11:02;32.00;;;9.50;;
77191;SDS011;66172;48.526;8.078;2024-01-15T04:13:28;35.35;;;10.60;;
77191;SDS011;66172;48.526;8.078;2024-01-15T04:15:54;32.72;;;9.93;;
77191;SDS011;66172;48.526;8.078;2024-01-15T04:18:20;33.90;;;10.50;;
77191;SDS011;66172;48.526;8.078;2024-01-15T04:20:46;34.67;;;10.60;;
77191;SDS011;66172;48.526;8.078;2024-01-15T04:23:14;30.23;;;8.68;;
77191;SDS011;66172;48.526;8.078;2024-01-15T04:25:40;36.15;;;10.25;;
77191;SDS011;66172;48.526;8.078;2024-01-15T04:28:08;33.17;;;10.23;;
77191;SDS011;66172;48.526;8.078;2024-01-15T04:30:34;30.30;;;9.48;;
77191;SDS011;66172;48.526;8.078;2024-01-15T04:33:01;35.33;;;9.27;;
77191;SDS011;66172;48.526;8.078;2024-01-15T04:35:27;32.42;;;10.05;;
77191;SDS011;66172;48.526;8.078;2024-01-15T04:37:53;32.57;;;12.43;;
77191;SDS011;66172;48.526;8.078;2024-01-15T04:40:18;32.50;;;10.30;;
77191;SDS011;66172;48.526;8.078;2024-01-15T04:42:44;34.13;;;10.02;;
77191;SDS011;66172;48.526;8.078;2024-01-15T04:45:11;33.00;;;9.60;;
77191;SDS011;66172;48.526;8.078;2024-01-15T04:47:37;33.33;;;9.80;;
77191;SDS011;66172;48.526;8.078;2024-01-15T04:50:04;27.27;;;8.82;;
77191;SDS011;66172;48.526;8.078;2024-01-15T04:52:30;28.35;;;8.65;;
77191;SDS011;66172;48.526;8.078;2024-01-15T04:54:56;31.75;;;9.50;;
77191;SDS011;66172;48.526;8.078;2024-01-15T04:57:22;32.50;;;10.13;;
77191;SDS011;66172;48.526;8.078;2024-01-15T04:59:48;35.60;;;9.75;;
77191;SDS011;66172;48.526;8.078;2024-01-15T05:02:14;28.63;;;9.15;;
77191;SDS011;66172;48.526;8.078;2024-01-15T05:04:39;86.03;;;20.80;;
77191;SDS011;66172;48.526;8.078;2024-01-15T05:07:05;30.90;;;9.83;;
77191;SDS011;66172;48.526;8.078;2024-01-15T05:09:31;30.98;;;10.18;;
77191;SDS011;66172;48.526;8.078;2024-01-15T05:11:57;30.20;;;9.20;;
77191;SDS011;66172;48.526;8.078;2024-01-15T05:14:23;31.40;;;9.57;;
77191;SDS011;66172;48.526;8.078;2024-01-15T05:16:49;29.73;;;9.10;;
77191;SDS011;66172;48.526;8.078;2024-01-15T05:19:15;27.30;;;8.45;;
77191;SDS011;66172;48.526;8.078;2024-01-15T05:21:41;28.77;;;8.98;;
77191;SDS011;66172;48.526;8.078;2024-01-15T05:24:08;30.10;;;9.20;;
77191;SDS011;66172;48.526;8.078;2024-01-15T05:26:34;28.70;;;9.07;;
77191;SDS011;66172;48.526;8.078;2024-01-15T05:29:00;28.50;;;8.85;;
77191;SDS011;66172;48.526;8.078;2024-01-15T05:31:26;29.60;;;9.20;;
77191;SDS011;66172;48.526;8.078;2024-01-15T05:33:52;28.93;;;8.93;;
77191;SDS011;66172;48.526;8.078;2024-01-15T05:36:18;27.45;;;8.82;;
77191;SDS011;66172;48.526;8.078;2024-01-15T05:38:44;29.80;;;9.23;;
77191;SDS011;66172;48.526;8.078;2024-01-15T05:41:10;25.37;;;8.80;;
77191;SDS011;66172;48.526;8.078;2024-01-15T05:43:36;24.37;;;8.80;;
77191;SDS011;66172;48.526;8.078;2024-01-15T05:46:02;28.13;;;8.40;;
77191;SDS011;66172;48.526;8.078;2024-01-15T05:48:28;28.63;;;8.43;;
77191;SDS011;66172;48.526;8.078;2024-01-15T05:50:54;29.13;;;8.85;;
77191;SDS011;66172;48.526;8.078;2024-01-15T05:53:20;26.60;;;8.50;;
77191;SDS011;66172;48.526;8.078;2024-01-15T05:55:46;26.88;;;9.18;;
77191;SDS011;66172;48.526;8.078;2024-01-15T05:58:12;22.77;;;7.53;;
77191;SDS011;66172;48.526;8.078;2024-01-15T06:00:38;24.80;;;8.47;;
77191;SDS011;66172;48.526;8.078;2024-01-15T06:03:04;24.90;;;8.63;;
77191;SDS011;66172;48.526;8.078;2024-01-15T06:05:30;28.08;;;9.68;;
77191;SDS011;66172;48.526;8.078;2024-01-15T06:07:55;27.48;;;9.52;;
77191;SDS011;66172;48.526;8.078;2024-01-15T06:10:21;22.80;;;8.97;;
77191;SDS011;66172;48.526;8.078;2024-01-15T06:12:47;23.92;;;8.70;;
77191;SDS011;66172;48.526;8.078;2024-01-15T06:15:13;23.50;;;7.38;;
77191;SDS011;66172;48.526;8.078;2024-01-15T06:17:39;24.07;;;7.60;;
77191;SDS011;66172;48.526;8.078;2024-01-15T06:20:05;24.23;;;8.13;;
77191;SDS011;66172;48.526;8.078;2024-01-15T06:22:31;24.02;;;8.05;;
77191;SDS011;66172;48.526;8.078;2024-01-15T06:24:57;21.20;;;6.95;;
77191;SDS011;66172;48.526;8.078;2024-01-15T06:27:23;23.97;;;7.87;;
77191;SDS011;66172;48.526;8.078;2024-01-15T06:29:49;25.38;;;7.93;;
77191;SDS011;66172;48.526;8.078;2024-01-15T06:32:15;22.75;;;6.25;;
77191;SDS011;66172;48.526;8.078;2024-01-15T06:34:41;22.03;;;7.33;;
77191;SDS011;66172;48.526;8.078;2024-01-15T06:37:07;23.27;;;7.78;;
77191;SDS011;66172;48.526;8.078;2024-01-15T06:39:33;20.88;;;6.90;;
77191;SDS011;66172;48.526;8.078;2024-01-15T06:41:58;24.43;;;7.33;;
77191;SDS011;66172;48.526;8.078;2024-01-15T06:44:24;23.30;;;6.60;;
77191;SDS011;66172;48.526;8.078;2024-01-15T06:46:50;21.73;;;8.02;;
77191;SDS011;66172;48.526;8.078;2024-01-15T06:49:17;22.88;;;7.65;;
77191;SDS011;66172;48.526;8.078;2024-01-15T06:51:43;22.50;;;7.37;;
77191;SDS011;66172;48.526;8.078;2024-01-15T06:54:09;23.90;;;7.45;;
77191;SDS011;66172;48.526;8.078;2024-01-15T06:56:35;21.67;;;6.97;;
77191;SDS011;66172;48.526;8.078;2024-01-15T06:59:01;21.48;;;5.88;;
77191;SDS011;66172;48.526;8.078;2024-01-15T07:01:27;16.90;;;6.10;;
77191;SDS011;66172;48.526;8.078;2024-01-15T07:03:52;19.05;;;5.78;;
77191;SDS011;66172;48.526;8.078;2024-01-15T07:06:18;21.42;;;5.65;;
77191;SDS011;66172;48.526;8.078;2024-01-15T07:08:44;20.17;;;6.40;;
77191;SDS011;66172;48.526;8.078;2024-01-15T07:11:10;19.90;;;5.93;;
77191;SDS011;66172;48.526;8.078;2024-01-15T07:13:36;17.92;;;5.57;;
77191;SDS011;66172;48.526;8.078;2024-01-15T07:16:02;19.60;;;5.63;;
77191;SDS011;66172;48.526;8.078;2024-01-15T07:18:28;18.83;;;5.33;;
77191;SDS011;66172;48.526;8.078;2024-01-15T07:20:54;17.75;;;5.10;;
77191;SDS011;66172;48.526;8.078;2024-01-15T07:23:20;19.50;;;6.38;;
77191;SDS011;66172;48.526;8.078;2024-01-15T07:25:46;15.82;;;5.25;;
77191;SDS011;66172;48.526;8.078;2024-01-15T07:28:12;15.40;;;5.40;;
77191;SDS011;66172;48.526;8.078;2024-01-15T07:30:38;17.60;;;5.30;;
77191;SDS011;66172;48.526;8.078;2024-01-15T07:33:06;17.02;;;5.40;;
77191;SDS011;66172;48.526;8.078;2024-01-15T07:35:32;17.87;;;5.60;;
77191;SDS011;66172;48.526;8.078;2024-01-15T07:37:58;21.00;;;5.90;;
77191;SDS011;66172;48.526;8.078;2024-01-15T07:40:24;18.30;;;6.03;;
77191;SDS011;66172;48.526;8.078;2024-01-15T07:42:50;18.05;;;5.53;;
77191;SDS011;66172;48.526;8.078;2024-01-15T07:45:17;16.47;;;4.87;;
77191;SDS011;66172;48.526;8.078;2024-01-15T07:47:43;20.08;;;5.43;;
77191;SDS011;66172;48.526;8.078;2024-01-15T07:50:09;17.17;;;5.60;;
77191;SDS011;66172;48.526;8.078;2024-01-15T07:52:36;16.38;;;5.43;;
77191;SDS011;66172;48.526;8.078;2024-01-15T07:55:02;17.90;;;5.20;;
77191;SDS011;66172;48.526;8.078;2024-01-15T07:57:30;16.75;;;5.95;;
77191;SDS011;66172;48.526;8.078;2024-01-15T07:59:56;15.13;;;6.43;;
77191;SDS011;66172;48.526;8.078;2024-01-15T08:02:22;16.60;;;5.45;;
77191;SDS011;66172;48.526;8.078;2024-01-15T08:04:48;18.87;;;5.00;;
77191;SDS011;66172;48.526;8.078;2024-01-15T08:07:14;16.50;;;5.40;;
77191;SDS011;66172;48.526;8.078;2024-01-15T08:09:40;16.33;;;5.68;;
77191;SDS011;66172;48.526;8.078;2024-01-15T08:12:06;16.60;;;5.03;;
77191;SDS011;66172;48.526;8.078;2024-01-15T08:14:32;17.25;;;5.07;;
77191;SDS011;66172;48.526;8.078;2024-01-15T08:16:57;16.75;;;4.88;;
77191;SDS011;66172;48.526;8.078;2024-01-15T08:19:23;16.95;;;5.85;;
77191;SDS011;66172;48.526;8.078;2024-01-15T08:21:49;17.40;;;5.17;;
77191;SDS011;66172;48.526;8.078;2024-01-15T08:24:15;20.35;;;5.78;;
77191;SDS011;66172;48.526;8.078;2024-01-15T08:26:42;15.55;;;5.35;;
77191;SDS011;66172;48.526;8.078;2024-01-15T08:29:08;18.30;;;5.85;;
77191;SDS011;66172;48.526;8.078;2024-01-15T08:31:34;17.08;;;5.55;;
77191;SDS011;66172;48.526;8.078;2024-01-15T08:34:00;18.27;;;5.43;;
77191;SDS011;66172;48.526;8.078;2024-01-15T08:36:27;22.85;;;6.53;;
77191;SDS011;66172;48.526;8.078;2024-01-15T08:38:55;20.90;;;7.25;;
77191;SDS011;66172;48.526;8.078;2024-01-15T08:41:21;20.33;;;7.75;;
77191;SDS011;66172;48.526;8.078;2024-01-15T08:43:46;19.67;;;7.43;;
77191;SDS011;66172;48.526;8.078;2024-01-15T08:46:12;24.30;;;7.47;;
77191;SDS011;66172;48.526;8.078;2024-01-15T08:48:38;25.30;;;7.43;;
77191;SDS011;66172;48.526;8.078;2024-01-15T08:51:05;22.13;;;7.93;;
77191;SDS011;66172;48.526;8.078;2024-01-15T08:53:31;25.40;;;8.47;;
77191;SDS011;66172;48.526;8.078;2024-01-15T08:55:58;30.83;;;9.00;;
77191;SDS011;66172;48.526;8.078;2024-01-15T08:58:24;28.55;;;8.73;;
77191;SDS011;66172;48.526;8.078;2024-01-15T09:00:50;27.83;;;9.70;;
77191;SDS011;66172;48.526;8.078;2024-01-15T09:03:16;26.20;;;9.07;;
77191;SDS011;66172;48.526;8.078;2024-01-15T09:05:42;24.70;;;8.20;;
77191;SDS011;66172;48.526;8.078;2024-01-15T09:08:08;26.95;;;8.82;;
77191;SDS011;66172;48.526;8.078;2024-01-15T09:10:34;30.90;;;9.20;;
77191;SDS011;66172;48.526;8.078;2024-01-15T09:13:00;29.10;;;9.23;;
77191;SDS011;66172;48.526;8.078;2024-01-15T09:15:26;30.90;;;9.40;;
77191;SDS011;66172;48.526;8.078;2024-01-15T09:17:52;28.50;;;8.98;;
77191;SDS011;66172;48.526;8.078;2024-01-15T09:20:18;29.77;;;8.38;;
77191;SDS011;66172;48.526;8.078;2024-01-15T09:22:44;28.97;;;9.73;;
77191;SDS011;66172;48.526;8.078;2024-01-15T09:25:10;27.17;;;8.90;;
77191;SDS011;66172;48.526;8.078;2024-01-15T09:27:36;27.38;;;9.15;;
77191;SDS011;66172;48.526;8.078;2024-01-15T09:30:02;27.02;;;8.82;;
77191;SDS011;66172;48.526;8.078;2024-01-15T09:32:29;26.85;;;8.70;;
77191;SDS011;66172;48.526;8.078;2024-01-15T09:34:55;24.13;;;7.90;;
77191;SDS011;66172;48.526;8.078;2024-01-15T09:37:21;26.15;;;8.48;;
77191;SDS011;66172;48.526;8.078;2024-01-15T09:39:47;25.15;;;7.65;;
77191;SDS011;66172;48.526;8.078;2024-01-15T09:42:13;22.65;;;7.53;;
77191;SDS011;66172;48.526;8.078;2024-01-15T09:44:40;19.27;;;7.30;;
77191;SDS011;66172;48.526;8.078;2024-01-15T09:47:07;21.75;;;6.60;;
77191;SDS011;66172;48.526;8.078;2024-01-15T09:49:34;19.83;;;6.90;;
77191;SDS011;66172;48.526;8.078;2024-01-15T09:52:00;21.58;;;7.47;;
77191;SDS011;66172;48.526;8.078;2024-01-15T09:54:27;23.73;;;6.93;;
77191;SDS011;66172;48.526;8.078;2024-01-15T09:56:54;19.87;;;6.57;;
77191;SDS011;66172;48.526;8.078;2024-01-15T09:59:20;20.33;;;5.70;;
77191;SDS011;66172;48.526;8.078;2024-01-15T10:01:48;18.92;;;5.85;;
77191;SDS011;66172;48.526;8.078;2024-01-15T10:04:16;21.30;;;5.97;;
77191;SDS011;66172;48.526;8.078;2024-01-15T10:06:43;17.03;;;5.10;;
77191;SDS011;66172;48.526;8.078;2024-01-15T10:09:13;17.00;;;5.00;;
77191;SDS011;66172;48.526;8.078;2024-01-15T10:11:42;15.95;;;4.68;;
77191;SDS011;66172;48.526;8.078;2024-01-15T10:14:09;13.68;;;5.13;;
77191;SDS011;66172;48.526;8.078;2024-01-15T10:16:39;17.65;;;5.22;;
77191;SDS011;66172;48.526;8.078;2024-01-15T10:19:06;18.20;;;5.13;;
77191;SDS011;66172;48.526;8.078;2024-01-15T10:21:33;12.98;;;4.30;;
77191;SDS011;66172;48.526;8.078;2024-01-15T10:24:02;16.83;;;4.75;;
77191;SDS011;66172;48.526;8.078;2024-01-15T10:26:29;15.07;;;4.65;;
77191;SDS011;66172;48.526;8.078;2024-01-15T10:28:58;15.25;;;4.75;;
77191;SDS011;66172;48.526;8.078;2024-01-15T10:31:25;13.40;;;4.40;;
77191;SDS011;66172;48.526;8.078;2024-01-15T10:33:51;14.48;;;4.57;;
77191;SDS011;66172;48.526;8.078;2024-01-15T10:36:17;12.82;;;4.75;;
77191;SDS011;66172;48.526;8.078;2024-01-15T10:38:43;12.80;;;4.40;;
77191;SDS011;66172;48.526;8.078;2024-01-15T10:41:10;13.93;;;3.93;;
77191;SDS011;66172;48.526;8.078;2024-01-15T10:43:36;12.02;;;3.70;;
77191;SDS011;66172;48.526;8.078;2024-01-15T10:46:02;12.27;;;4.35;;
77191;SDS011;66172;48.526;8.078;2024-01-15T10:48:28;14.68;;;4.85;;
77191;SDS011;66172;48.526;8.078;2024-01-15T10:50:56;11.82;;;3.65;;
77191;SDS011;66172;48.526;8.078;2024-01-15T10:53:23;14.60;;;4.00;;
77191;SDS011;66172;48.526;8.078;2024-01-15T10:55:53;12.20;;;3.72;;
77191;SDS011;66172;48.526;8.078;2024-01-15T10:58:20;11.40;;;3.63;;
77191;SDS011;66172;48.526;8.078;2024-01-15T11:00:46;12.05;;;4.22;;
77191;SDS011;66172;48.526;8.078;2024-01-15T11:03:12;11.25;;;3.72;;
77191;SDS011;66172;48.526;8.078;2024-01-15T11:05:39;11.23;;;3.73;;
77191;SDS011;66172;48.526;8.078;2024-01-15T11:08:07;10.38;;;3.55;;
77191;SDS011;66172;48.526;8.078;2024-01-15T11:10:40;12.85;;;3.45;;
77191;SDS011;66172;48.526;8.078;2024-01-15T11:13:20;10.35;;;3.55;;
77191;SDS011;66172;48.526;8.078;2024-01-15T11:16:01;12.00;;;3.60;;
77191;SDS011;66172;48.526;8.078;2024-01-15T11:18:29;12.50;;;3.50;;
77191;SDS011;66172;48.526;8.078;2024-01-15T11:23:43;12.35;;;4.32;;
77191;SDS011;66172;48.526;8.078;2024-01-15T11:29:00;11.60;;;3.55;;
77191;SDS011;66172;48.526;8.078;2024-01-15T11:34:07;12.10;;;3.95;;
77191;SDS011;66172;48.526;8.078;2024-01-15T11:41:55;12.05;;;3.53;;
77191;SDS011;66172;48.526;8.078;2024-01-15T11:44:22;10.50;;;2.93;;
77191;SDS011;66172;48.526;8.078;2024-01-15T11:46:55;9.18;;;3.00;;
77191;SDS011;66172;48.526;8.078;2024-01-15T11:52:18;7.72;;;2.28;;
77191;SDS011;66172;48.526;8.078;2024-01-15T11:54:55;9.90;;;2.60;;
77191;SDS011;66172;48.526;8.078;2024-01-15T11:57:45;11.98;;;3.10;;
77191;SDS011;66172;48.526;8.078;2024-01-15T12:00:13;10.80;;;3.42;;
77191;SDS011;66172;48.526;8.078;2024-01-15T12:02:40;9.02;;;3.05;;
77191;SDS011;66172;48.526;8.078;2024-01-15T12:05:10;9.55;;;3.00;;
77191;SDS011;66172;48.526;8.078;2024-01-15T12:07:39;7.87;;;2.53;;
77191;SDS011;66172;48.526;8.078;2024-01-15T12:10:08;10.20;;;2.92;;
77191;SDS011;66172;48.526;8.078;2024-01-15T12:15:16;10.23;;;3.00;;
77191;SDS011;66172;48.526;8.078;2024-01-15T12:17:42;13.50;;;3.45;;
77191;SDS011;66172;48.526;8.078;2024-01-15T12:20:08;9.20;;;2.90;;
77191;SDS011;66172;48.526;8.078;2024-01-15T12:22:35;12.43;;;3.65;;
77191;SDS011;66172;48.526;8.078;2024-01-15T12:25:01;12.18;;;3.72;;
77191;SDS011;66172;48.526;8.078;2024-01-15T12:27:27;13.23;;;3.65;;
77191;SDS011;66172;48.526;8.078;2024-01-15T12:29:53;9.97;;;3.17;;
77191;SDS011;66172;48.526;8.078;2024-01-15T12:32:19;14.27;;;3.70;;
77191;SDS011;66172;48.526;8.078;2024-01-15T12:34:48;9.90;;;3.10;;
77191;SDS011;66172;48.526;8.078;2024-01-15T12:37:14;10.60;;;3.55;;
77191;SDS011;66172;48.526;8.078;2024-01-15T12:39:42;10.80;;;3.33;;
77191;SDS011;66172;48.526;8.078;2024-01-15T12:42:09;11.23;;;3.28;;
77191;SDS011;66172;48.526;8.078;2024-01-15T12:44:35;9.90;;;3.55;;
77191;SDS011;66172;48.526;8.078;2024-01-15T12:47:04;12.48;;;3.42;;
77191;SDS011;66172;48.526;8.078;2024-01-15T12:49:30;11.43;;;3.67;;
77191;SDS011;66172;48.526;8.078;2024-01-15T12:51:57;13.23;;;3.80;;
77191;SDS011;66172;48.526;8.078;2024-01-15T12:54:23;12.07;;;3.60;;
77191;SDS011;66172;48.526;8.078;2024-01-15T12:56:52;11.35;;;3.28;;
77191;SDS011;66172;48.526;8.078;2024-01-15T12:59:18;10.60;;;3.20;;
77191;SDS011;66172;48.526;8.078;2024-01-15T13:01:44;11.02;;;4.38;;
77191;SDS011;66172;48.526;8.078;2024-01-15T13:04:20;11.40;;;3.93;;
77191;SDS011;66172;48.526;8.078;2024-01-15T13:06:47;9.70;;;3.53;;
77191;SDS011;66172;48.526;8.078;2024-01-15T13:09:13;13.48;;;4.20;;
77191;SDS011;66172;48.526;8.078;2024-01-15T13:11:40;12.23;;;4.35;;
77191;SDS011;66172;48.526;8.078;2024-01-15T13:14:06;12.48;;;4.65;;
77191;SDS011;66172;48.526;8.078;2024-01-15T13:16:32;12.07;;;3.80;;
77191;SDS011;66172;48.526;8.078;2024-01-15T13:18:58;11.30;;;3.95;;
77191;SDS011;66172;48.526;8.078;2024-01-15T13:21:24;12.18;;;3.90;;
77191;SDS011;66172;48.526;8.078;2024-01-15T13:23:50;12.80;;;4.57;;
77191;SDS011;66172;48.526;8.078;2024-01-15T13:26:16;13.67;;;4.03;;
77191;SDS011;66172;48.526;8.078;2024-01-15T13:28:43;11.65;;;4.03;;
77191;SDS011;66172;48.526;8.078;2024-01-15T13:31:09;11.55;;;3.78;;
77191;SDS011;66172;48.526;8.078;2024-01-15T13:33:35;11.13;;;4.13;;
77191;SDS011;66172;48.526;8.078;2024-01-15T13:36:01;10.97;;;3.83;;
77191;SDS011;66172;48.526;8.078;2024-01-15T13:38:28;13.20;;;4.75;;
77191;SDS011;66172;48.526;8.078;2024-01-15T13:40:57;14.65;;;5.10;;
77191;SDS011;66172;48.526;8.078;2024-01-15T13:43:23;13.82;;;5.10;;
77191;SDS011;66172;48.526;8.078;2024-01-15T13:45:49;18.08;;;5.00;;
77191;SDS011;66172;48.526;8.078;2024-01-15T13:48:15;14.77;;;5.07;;
77191;SDS011;66172;48.526;8.078;2024-01-15T13:50:41;16.27;;;5.65;;
77191;SDS011;66172;48.526;8.078;2024-01-15T13:53:07;16.33;;;5.95;;
77191;SDS011;66172;48.526;8.078;2024-01-15T13:55:35;12.35;;;4.30;;
77191;SDS011;66172;48.526;8.078;2024-01-15T13:58:01;13.80;;;5.33;;
77191;SDS011;66172;48.526;8.078;2024-01-15T14:00:29;12.75;;;3.90;;
77191;SDS011;66172;48.526;8.078;2024-01-15T14:02:55;13.77;;;5.10;;
77191;SDS011;66172;48.526;8.078;2024-01-15T14:05:21;12.17;;;4.60;;
77191;SDS011;66172;48.526;8.078;2024-01-15T14:07:47;10.37;;;3.97;;
77191;SDS011;66172;48.526;8.078;2024-01-15T14:10:14;11.10;;;4.60;;
77191;SDS011;66172;48.526;8.078;2024-01-15T14:12:40;9.98;;;3.95;;
77191;SDS011;66172;48.526;8.078;2024-01-15T14:15:06;12.48;;;4.88;;
77191;SDS011;66172;48.526;8.078;2024-01-15T14:17:32;11.90;;;4.67;;
77191;SDS011;66172;48.526;8.078;2024-01-15T14:19:58;11.15;;;4.75;;
77191;SDS011;66172;48.526;8.078;2024-01-15T14:22:24;10.60;;;4.22;;
77191;SDS011;66172;48.526;8.078;2024-01-15T14:24:50;11.55;;;3.72;;
77191;SDS011;66172;48.526;8.078;2024-01-15T14:27:16;10.95;;;4.13;;
77191;SDS011;66172;48.526;8.078;2024-01-15T14:29:42;8.27;;;3.47;;
77191;SDS011;66172;48.526;8.078;2024-01-15T14:32:08;9.85;;;3.85;;
77191;SDS011;66172;48.526;8.078;2024-01-15T14:34:34;9.60;;;3.58;;
77191;SDS011;66172;48.526;8.078;2024-01-15T14:37:02;9.63;;;3.22;;
77191;SDS011;66172;48.526;8.078;2024-01-15T14:39:30;9.37;;;3.10;;
77191;SDS011;66172;48.526;8.078;2024-01-15T14:41:59;11.35;;;3.33;;
77191;SDS011;66172;48.526;8.078;2024-01-15T14:44:26;10.45;;;3.13;;